Terminal Aerodrome Forecast
Issued by NWS

Home | Current Version | Previous Version | Text Only | Print | Product List | Glossary On
Versions: 1 2 3 4 5 6 7 8 9 10 11 12 13 14 15 16 17 18 19 20 21
000
FTUS44 KMAF 302300
TAFHOB
TAF
KHOB 302321Z 3100/3124 10009KT P6SM -RA OVC025
     FM310700 09007KT 5SM -RA BR SCT006 OVC010
     FM312100 16007KT P6SM -RA OVC025=

USA.gov is the U.S. government's official web portal to all federal, state and local government web resources and services.